createdAt,value
2018-06-08T00:01:32.958Z,10.15
2018-06-08T00:04:02.081Z,9.43
2018-06-08T00:06:30.433Z,9.45
2018-06-08T00:08:59.551Z,9.88
2018-06-08T00:11:27.921Z,9.70
2018-06-08T00:13:56.334Z,9.35
2018-06-08T00:16:24.719Z,9.23
2018-06-08T00:18:53.059Z,9.80
2018-06-08T00:21:21.458Z,9.57
2018-06-08T00:23:49.829Z,9.77
2018-06-08T00:26:18.342Z,9.97
2018-06-08T00:28:46.695Z,10.10
2018-06-08T00:31:15.648Z,9.27
2018-06-08T00:33:44.771Z,10.50
2018-06-08T00:36:13.123Z,9.60
2018-06-08T00:38:42.405Z,10.02
2018-06-08T00:41:10.878Z,9.77
2018-06-08T00:43:39.222Z,9.43
2018-06-08T00:46:07.582Z,9.68
2018-06-08T00:48:35.934Z,10.32
2018-06-08T00:51:04.285Z,9.57
2018-06-08T00:53:32.641Z,10.63
2018-06-08T00:56:01.029Z,11.20
2018-06-08T00:58:29.378Z,10.70
2018-06-08T01:00:57.739Z,10.77
2018-06-08T01:03:26.882Z,10.48
2018-06-08T01:05:55.232Z,10.67
2018-06-08T01:08:23.594Z,11.90
2018-06-08T01:10:52.706Z,11.32
2018-06-08T01:13:21.119Z,10.93
2018-06-08T01:15:49.474Z,11.20
2018-06-08T01:18:17.847Z,11.97
2018-06-08T01:20:47.060Z,12.20
2018-06-08T01:23:15.459Z,12.70
2018-06-08T01:25:43.940Z,12.17
2018-06-08T01:28:12.317Z,13.10
2018-06-08T01:30:40.650Z,13.13
2018-06-08T01:33:09.805Z,12.87
2018-06-08T01:35:38.153Z,12.50
2018-06-08T01:38:06.550Z,12.60
2018-06-08T01:40:34.897Z,11.68
2018-06-08T01:43:03.322Z,12.63
2018-06-08T01:45:31.758Z,11.60
2018-06-08T01:48:00.993Z,12.50
2018-06-08T01:50:29.354Z,11.97
2018-06-08T01:52:57.714Z,12.13
2018-06-08T01:55:26.142Z,12.20
2018-06-08T01:57:54.562Z,12.90
2018-06-08T02:00:23.701Z,12.70
2018-06-08T02:02:52.057Z,13.37
2018-06-08T02:05:20.470Z,12.30
2018-06-08T02:07:48.859Z,12.37
2018-06-08T02:10:17.228Z,12.20
2018-06-08T02:12:45.593Z,12.87
2018-06-08T02:15:13.938Z,13.17
2018-06-08T02:17:43.183Z,13.48
2018-06-08T02:20:11.547Z,12.63
2018-06-08T02:22:40.411Z,13.03
2018-06-08T02:25:10.132Z,12.45
2018-06-08T02:27:38.690Z,12.20
2018-06-08T02:30:07.050Z,11.30
2018-06-08T02:32:35.391Z,12.90
2018-06-08T02:35:03.745Z,12.37
2018-06-08T02:37:32.870Z,12.03
2018-06-08T02:40:01.224Z,11.97
2018-06-08T02:42:30.370Z,12.50
2018-06-08T02:44:58.721Z,12.70
2018-06-08T02:47:27.098Z,12.00
2018-06-08T02:49:55.450Z,12.40
2018-06-08T02:52:24.580Z,13.10
2018-06-08T02:54:52.933Z,14.10
2018-06-08T02:57:22.156Z,13.27
2018-06-08T02:59:50.514Z,12.80
2018-06-08T03:02:19.006Z,13.53
2018-06-08T03:04:47.488Z,13.57
2018-06-08T03:07:15.895Z,13.43
2018-06-08T03:09:44.322Z,13.30
2018-06-08T03:12:13.451Z,13.13
2018-06-08T03:14:41.800Z,13.87
2018-06-08T03:17:10.935Z,13.40
2018-06-08T03:19:39.274Z,14.27
2018-06-08T03:22:08.415Z,13.50
2018-06-08T03:24:36.781Z,14.13
2018-06-08T03:27:05.912Z,14.10
2018-06-08T03:29:34.246Z,12.77
2018-06-08T03:32:02.608Z,13.77
2018-06-08T03:34:31.294Z,12.43
2018-06-08T03:36:59.649Z,13.53
2018-06-08T03:39:28.091Z,13.03
2018-06-08T03:41:56.437Z,13.50
2018-06-08T03:44:25.566Z,12.43
2018-06-08T03:46:54.664Z,13.50
2018-06-08T03:49:23.002Z,13.27
2018-06-08T03:51:52.128Z,12.93
2018-06-08T03:54:20.523Z,21.50
2018-06-08T03:56:48.897Z,17.23
2018-06-08T03:59:17.247Z,13.10
2018-06-08T04:01:45.708Z,13.27
2018-06-08T04:04:14.492Z,12.57
2018-06-08T04:06:43.677Z,12.23
2018-06-08T04:09:12.017Z,13.53
2018-06-08T04:11:40.389Z,13.60
2018-06-08T04:14:08.751Z,12.93
2018-06-08T04:16:37.865Z,13.67
2018-06-08T04:19:06.470Z,13.57
2018-06-08T04:21:34.837Z,13.97
2018-06-08T04:24:03.213Z,12.87
2018-06-08T04:26:31.559Z,12.67
2018-06-08T04:29:00.703Z,26.07
2018-06-08T04:31:29.142Z,16.27
2018-06-08T04:33:58.278Z,14.10
2018-06-08T04:36:26.653Z,12.97
2018-06-08T04:38:55.006Z,12.23
2018-06-08T04:41:23.467Z,14.37
2018-06-08T04:43:51.805Z,13.38
2018-06-08T04:46:20.202Z,12.57
2018-06-08T04:48:48.653Z,16.13
2018-06-08T04:51:16.994Z,13.33
2018-06-08T04:53:46.113Z,12.73
2018-06-08T04:56:14.507Z,12.63
2018-06-08T04:58:43.551Z,13.03
2018-06-08T05:01:11.940Z,12.87
2018-06-08T05:03:40.318Z,12.77
2018-06-08T05:06:09.434Z,13.90
2018-06-08T05:08:37.834Z,12.87
2018-06-08T05:11:06.433Z,12.80
2018-06-08T05:13:34.789Z,12.63
2018-06-08T05:16:03.142Z,13.25
2018-06-08T05:18:32.275Z,13.95
2018-06-08T05:21:00.620Z,13.80
2018-06-08T05:23:29.782Z,13.02
2018-06-08T05:25:58.278Z,14.43
2018-06-08T05:28:26.619Z,14.30
2018-06-08T05:30:54.974Z,14.98
2018-06-08T05:33:23.396Z,14.30
2018-06-08T05:35:51.958Z,13.80
2018-06-08T05:38:20.312Z,13.27
2018-06-08T05:40:48.666Z,12.80
2018-06-08T05:43:17.775Z,12.60
2018-06-08T05:45:46.945Z,13.82
2018-06-08T05:48:20.063Z,13.73
2018-06-08T05:50:48.377Z,13.88
2018-06-08T05:53:16.726Z,12.95
2018-06-08T05:55:45.950Z,12.52
2018-06-08T05:58:14.310Z,13.10
2018-06-08T06:00:42.823Z,11.80
2018-06-08T06:03:11.260Z,12.93
2018-06-08T06:05:40.378Z,13.35
2018-06-08T06:08:08.852Z,12.45
2018-06-08T06:10:38.042Z,12.13
2018-06-08T06:13:07.266Z,12.13
2018-06-08T06:15:35.750Z,12.73
2018-06-08T06:18:04.096Z,12.48
2018-06-08T06:20:33.228Z,11.65
2018-06-08T06:23:01.593Z,17.62
2018-06-08T06:25:30.064Z,12.50
2018-06-08T06:27:58.478Z,12.65
2018-06-08T06:30:26.855Z,12.15
2018-06-08T06:32:55.214Z,13.23
2018-06-08T06:35:23.570Z,11.65
2018-06-08T06:37:52.702Z,12.20
2018-06-08T06:40:21.080Z,12.45
2018-06-08T06:42:49.451Z,12.07
2018-06-08T06:45:17.835Z,12.00
2018-06-08T06:47:46.227Z,11.52
2018-06-08T06:50:14.593Z,11.05
2018-06-08T06:52:43.011Z,12.02
2018-06-08T06:55:11.381Z,12.27
2018-06-08T06:57:39.738Z,11.45
2018-06-08T07:00:08.116Z,11.10
2018-06-08T07:02:36.491Z,11.50
2018-06-08T07:05:04.879Z,11.10
2018-06-08T07:07:33.243Z,12.20
2018-06-08T07:10:01.612Z,10.93
2018-06-08T07:12:30.032Z,11.90
2018-06-08T07:14:58.394Z,11.10
2018-06-08T07:17:26.770Z,11.40
2018-06-08T07:19:55.223Z,11.55
2018-06-08T07:22:24.364Z,11.12
2018-06-08T07:24:52.783Z,11.85
2018-06-08T07:27:21.130Z,10.43
2018-06-08T07:29:49.470Z,11.55
2018-06-08T07:32:17.837Z,12.82
2018-06-08T07:34:47.148Z,10.65
2018-06-08T07:37:16.295Z,11.20
2018-06-08T07:39:44.693Z,10.23
2018-06-08T07:42:13.047Z,9.88
2018-06-08T07:44:42.110Z,10.65
2018-06-08T07:47:10.465Z,12.00
2018-06-08T07:49:39.584Z,12.32
2018-06-08T07:52:07.947Z,11.90
2018-06-08T07:54:37.175Z,11.38
2018-06-08T07:57:05.566Z,11.35
2018-06-08T07:59:33.939Z,11.85
2018-06-08T08:02:02.319Z,17.10
2018-06-08T08:04:30.681Z,13.85
2018-06-08T08:06:59.022Z,11.95
2018-06-08T08:09:28.150Z,10.07
2018-06-08T08:11:56.513Z,11.12
2018-06-08T08:14:25.645Z,12.75
2018-06-08T08:16:54.104Z,17.25
2018-06-08T08:19:22.625Z,11.80
2018-06-08T08:21:51.095Z,11.30
2018-06-08T08:24:19.484Z,11.63
2018-06-08T08:26:47.851Z,11.10
2018-06-08T08:29:16.395Z,10.55
2018-06-08T08:31:45.517Z,11.48
2018-06-08T08:34:13.937Z,11.32
2018-06-08T08:36:42.289Z,11.63
2018-06-08T08:39:10.658Z,25.62
2018-06-08T08:41:39.235Z,11.68
2018-06-08T08:44:07.650Z,11.60
2018-06-08T08:46:36.014Z,14.18
2018-06-08T08:49:04.378Z,21.77
2018-06-08T08:51:32.770Z,16.65
2018-06-08T08:54:01.245Z,10.65
2018-06-08T08:56:30.380Z,10.48
2018-06-08T08:58:59.239Z,9.40
2018-06-08T09:01:27.578Z,9.57
2018-06-08T09:03:56.828Z,9.77
2018-06-08T09:06:25.165Z,10.07
2018-06-08T09:08:53.563Z,8.43
2018-06-08T09:11:21.949Z,19.17
2018-06-08T09:13:50.320Z,12.15
2018-06-08T09:16:18.717Z,10.50
2018-06-08T09:18:47.129Z,9.23
2018-06-08T09:21:15.566Z,8.85
2018-06-08T09:23:43.994Z,9.10
2018-06-08T09:26:12.331Z,8.68
2018-06-08T09:28:40.709Z,8.65
2018-06-08T09:31:09.095Z,9.20
2018-06-08T09:33:37.491Z,8.48
2018-06-08T09:36:05.947Z,8.63
2018-06-08T09:38:34.335Z,8.43
2018-06-08T09:41:02.723Z,7.93
2018-06-08T09:43:31.086Z,7.15
2018-06-08T09:45:59.552Z,8.50
2018-06-08T09:48:28.696Z,8.50
2018-06-08T09:50:57.208Z,8.60
2018-06-08T09:53:25.557Z,8.23
2018-06-08T09:55:53.918Z,7.75
2018-06-08T09:58:22.253Z,7.90
2018-06-08T10:00:51.403Z,6.90
2018-06-08T10:03:19.764Z,8.07
2018-06-08T10:05:48.106Z,7.70
2018-06-08T10:08:17.247Z,7.78
2018-06-08T10:10:45.602Z,8.07
2018-06-08T10:13:14.617Z,8.35
2018-06-08T10:15:42.949Z,7.53
2018-06-08T10:18:11.385Z,8.93
2018-06-08T10:20:39.760Z,8.45
2018-06-08T10:23:08.121Z,7.35
2018-06-08T10:25:36.720Z,7.85
2018-06-08T10:28:05.084Z,8.30
2018-06-08T10:30:33.427Z,8.88
2018-06-08T10:33:02.541Z,7.57
2018-06-08T10:35:30.958Z,7.20
2018-06-08T10:37:59.310Z,7.32
2018-06-08T10:40:27.691Z,6.95
2018-06-08T10:42:56.058Z,6.93
2018-06-08T10:45:24.458Z,7.20
2018-06-08T10:47:52.808Z,17.85
2018-06-08T10:50:21.937Z,8.50
2018-06-08T10:52:50.301Z,7.95
2018-06-08T10:55:18.804Z,6.20
2018-06-08T10:57:47.165Z,6.35
2018-06-08T11:00:15.542Z,6.80
2018-06-08T11:02:43.938Z,6.35
2018-06-08T11:05:12.527Z,6.03
2018-06-08T11:07:40.913Z,6.57
2018-06-08T11:10:09.240Z,5.70
2018-06-08T11:12:38.395Z,5.28
2018-06-08T11:15:06.828Z,6.40
2018-06-08T11:17:35.243Z,6.57
2018-06-08T11:20:03.612Z,6.85
2018-06-08T11:22:32.147Z,6.95
2018-06-08T11:25:00.506Z,7.78
2018-06-08T11:27:28.891Z,7.37
2018-06-08T11:29:57.204Z,7.70
2018-06-08T11:32:25.621Z,7.93
2018-06-08T11:34:53.980Z,7.12
2018-06-08T11:37:22.323Z,9.40
2018-06-08T11:39:50.797Z,7.95
2018-06-08T11:42:20.116Z,7.62
2018-06-08T11:44:48.535Z,7.62
2018-06-08T11:47:16.880Z,7.70
2018-06-08T11:49:46.022Z,7.45
2018-06-08T11:52:14.346Z,7.85
2018-06-08T11:54:42.762Z,11.02
2018-06-08T11:57:11.169Z,7.72
2018-06-08T11:59:39.539Z,7.82
2018-06-08T12:02:08.122Z,7.90
2018-06-08T12:04:36.607Z,7.53
2018-06-08T12:07:04.974Z,8.18
2018-06-08T12:09:33.423Z,8.48
2018-06-08T12:12:02.634Z,9.68
2018-06-08T12:14:30.981Z,8.00
2018-06-08T12:16:59.405Z,7.43
2018-06-08T12:19:27.749Z,7.12
2018-06-08T12:21:56.878Z,7.60
2018-06-08T12:24:25.229Z,6.87
2018-06-08T12:26:54.338Z,11.73
2018-06-08T12:29:22.721Z,8.60
2018-06-08T12:31:51.062Z,7.53
2018-06-08T12:34:19.510Z,7.68
2018-06-08T12:36:58.558Z,7.10
2018-06-08T12:39:28.169Z,7.30
2018-06-08T12:41:56.638Z,7.20
2018-06-08T12:44:25.045Z,7.03
2018-06-08T12:46:53.497Z,7.00
2018-06-08T12:49:21.920Z,7.28
2018-06-08T12:51:50.483Z,7.05
2018-06-08T12:54:18.896Z,6.97
2018-06-08T12:56:47.303Z,7.28
2018-06-08T12:59:15.660Z,6.72
2018-06-08T13:01:44.012Z,6.50
2018-06-08T13:04:12.345Z,6.90
2018-06-08T13:06:40.714Z,6.97
2018-06-08T13:09:09.094Z,7.35
2018-06-08T13:11:37.573Z,7.28
2018-06-08T13:14:05.967Z,7.18
2018-06-08T13:16:34.316Z,12.23
2018-06-08T13:19:02.740Z,9.18
2018-06-08T13:21:31.210Z,6.85
2018-06-08T13:23:59.703Z,7.15
2018-06-08T13:26:29.007Z,6.87
2018-06-08T13:28:57.389Z,7.32
2018-06-08T13:31:25.777Z,7.93
2018-06-08T13:33:54.125Z,7.25
2018-06-08T13:36:22.515Z,7.43
2018-06-08T13:38:51.101Z,7.95
2018-06-08T13:41:19.428Z,11.73
2018-06-08T13:43:48.547Z,8.55
2018-06-08T13:46:17.230Z,8.13
2018-06-08T13:48:45.569Z,7.75
2018-06-08T13:51:13.915Z,7.75
2018-06-08T13:53:42.382Z,7.25
2018-06-08T13:56:10.873Z,6.85
2018-06-08T13:58:39.203Z,7.20
2018-06-08T14:01:08.371Z,7.25
2018-06-08T14:03:36.732Z,9.95
2018-06-08T14:06:05.107Z,8.90
2018-06-08T14:08:33.447Z,7.57
2018-06-08T14:11:01.875Z,8.18
2018-06-08T14:13:30.303Z,7.80
2018-06-08T14:15:58.962Z,8.18
2018-06-08T14:18:27.299Z,7.22
2018-06-08T14:20:55.658Z,7.53
2018-06-08T14:23:24.776Z,7.75
2018-06-08T14:25:53.163Z,7.70
2018-06-08T14:28:22.362Z,8.20
2018-06-08T14:30:50.745Z,7.80
2018-06-08T14:33:19.086Z,8.02
2018-06-08T14:35:48.201Z,7.37
2018-06-08T14:38:16.566Z,8.30
2018-06-08T14:40:45.084Z,9.48
2018-06-08T14:43:13.423Z,8.20
2018-06-08T14:45:42.539Z,7.78
2018-06-08T14:48:10.883Z,7.62
2018-06-08T14:50:39.230Z,8.23
2018-06-08T14:53:07.580Z,8.63
2018-06-08T14:55:35.971Z,9.57
2018-06-08T14:58:04.462Z,9.57
2018-06-08T15:00:32.804Z,8.80
2018-06-08T15:03:01.153Z,8.40
2018-06-08T15:05:29.502Z,8.77
2018-06-08T15:07:57.853Z,9.02
2018-06-08T15:10:26.210Z,8.80
2018-06-08T15:12:55.449Z,10.70
2018-06-08T15:15:23.810Z,8.75
2018-06-08T15:17:52.667Z,8.55
2018-06-08T15:20:21.099Z,8.65
2018-06-08T15:22:49.481Z,9.18
2018-06-08T15:25:17.820Z,9.27
2018-06-08T15:27:46.955Z,9.00
2018-06-08T15:30:15.305Z,9.20
2018-06-08T15:35:35.103Z,9.80
2018-06-08T15:38:03.526Z,9.20
2018-06-08T15:40:31.911Z,8.82
2018-06-08T15:43:00.340Z,9.13
2018-06-08T15:45:29.585Z,8.98
2018-06-08T15:47:58.137Z,9.50
2018-06-08T15:50:27.254Z,8.27
2018-06-08T15:52:56.627Z,9.23
2018-06-08T15:55:25.834Z,9.00
2018-06-08T15:57:54.193Z,10.02
2018-06-08T16:00:23.360Z,9.73
2018-06-08T16:02:51.741Z,9.20
2018-06-08T16:05:20.123Z,9.00
2018-06-08T16:07:48.566Z,9.38
2018-06-08T16:10:16.951Z,9.63
2018-06-08T16:12:45.429Z,9.93
2018-06-08T16:15:14.766Z,9.15
2018-06-08T16:17:43.345Z,9.23
2018-06-08T16:20:11.731Z,9.63
2018-06-08T16:22:40.098Z,9.85
2018-06-08T16:25:08.557Z,10.00
2018-06-08T16:27:37.006Z,9.20
2018-06-08T16:30:05.417Z,9.88
2018-06-08T16:32:33.774Z,9.70
2018-06-08T16:35:02.168Z,10.02
2018-06-08T16:37:30.544Z,9.82
2018-06-08T16:39:59.039Z,10.25
2018-06-08T16:42:27.429Z,9.55
2018-06-08T16:44:55.871Z,9.48
2018-06-08T16:47:25.029Z,10.45
2018-06-08T16:49:53.456Z,10.35
2018-06-08T16:52:21.898Z,10.30
2018-06-08T16:54:50.261Z,10.07
2018-06-08T16:57:18.807Z,10.32
2018-06-08T16:59:47.290Z,10.73
2018-06-08T17:02:15.752Z,9.93
2018-06-08T17:04:44.891Z,10.18
2018-06-08T17:07:13.282Z,9.93
2018-06-08T17:09:41.673Z,10.70
2018-06-08T17:12:10.199Z,9.85
2018-06-08T17:14:38.616Z,10.10
2018-06-08T17:17:07.050Z,10.13
2018-06-08T17:19:35.971Z,9.93
2018-06-08T17:22:04.558Z,10.73
2018-06-08T17:24:33.252Z,9.95
2018-06-08T17:27:01.786Z,10.27
2018-06-08T17:29:30.205Z,9.68
2018-06-08T17:31:58.733Z,10.73
2018-06-08T17:34:27.108Z,10.82
2018-06-08T17:36:55.588Z,9.98
2018-06-08T17:39:24.857Z,10.55
2018-06-08T17:41:53.241Z,10.65
2018-06-08T17:44:21.636Z,11.38
2018-06-08T17:46:50.247Z,11.15
2018-06-08T17:49:18.738Z,11.65
2018-06-08T17:51:47.174Z,11.52
2018-06-08T17:54:15.667Z,10.68
2018-06-08T17:56:44.328Z,12.35
2018-06-08T17:59:12.736Z,11.65
2018-06-08T18:01:41.188Z,12.37
2018-06-08T18:04:09.812Z,11.88
2018-06-08T18:06:38.172Z,12.18
2018-06-08T18:09:06.712Z,11.85
2018-06-08T18:11:35.141Z,12.18
2018-06-08T18:14:03.597Z,11.95
2018-06-08T18:16:31.983Z,12.80
2018-06-08T18:19:00.371Z,12.35
2018-06-08T18:21:28.756Z,12.43
2018-06-08T18:23:57.268Z,12.70
2018-06-08T18:26:25.811Z,12.90
2018-06-08T18:28:54.213Z,12.85
2018-06-08T18:31:22.576Z,13.13
2018-06-08T18:33:51.070Z,12.65
2018-06-08T18:36:19.562Z,12.57
2018-06-08T18:38:48.299Z,13.30
2018-06-08T18:41:16.802Z,13.32
2018-06-08T18:43:46.204Z,13.45
2018-06-08T18:46:14.657Z,13.55
2018-06-08T18:48:43.131Z,13.43
2018-06-08T18:51:11.638Z,14.18
2018-06-08T18:53:41.166Z,13.25
2018-06-08T18:56:09.641Z,14.82
2018-06-08T18:58:38.119Z,14.20
2018-06-08T19:01:06.689Z,14.65
2018-06-08T19:03:35.055Z,13.95
2018-06-08T19:06:03.533Z,14.30
2018-06-08T19:08:32.004Z,14.27
2018-06-08T19:11:00.419Z,14.68
2018-06-08T19:13:28.866Z,14.45
2018-06-08T19:15:57.526Z,13.57
2018-06-08T19:18:26.090Z,14.90
2018-06-08T19:20:54.533Z,14.05
2018-06-08T19:23:23.878Z,13.82
2018-06-08T19:25:52.254Z,14.98
2018-06-08T19:28:21.116Z,15.20
2018-06-08T19:30:49.913Z,14.73
2018-06-08T19:33:18.313Z,14.70
2018-06-08T19:35:46.708Z,16.20
2018-06-08T19:38:15.574Z,16.33
2018-06-08T19:40:44.482Z,16.37
2018-06-08T19:43:12.878Z,16.37
2018-06-08T19:45:42.050Z,17.00
2018-06-08T19:48:10.501Z,17.45
2018-06-08T19:53:14.646Z,17.33
2018-06-08T19:55:42.994Z,17.98
2018-06-08T19:58:11.374Z,18.40
2018-06-08T20:00:39.768Z,17.67
2018-06-08T20:03:08.270Z,18.17
2018-06-08T20:05:36.660Z,18.48
2018-06-08T20:08:05.023Z,17.90
2018-06-08T20:10:33.424Z,18.12
2018-06-08T20:13:01.805Z,18.12
2018-06-08T20:15:30.228Z,17.73
2018-06-08T20:17:58.603Z,19.50
2018-06-08T20:20:27.159Z,20.48
2018-06-08T20:22:55.690Z,16.95
2018-06-08T20:25:24.121Z,18.35
2018-06-08T20:27:52.492Z,16.62
2018-06-08T20:30:21.038Z,17.23
2018-06-08T20:32:49.456Z,17.58
2018-06-08T20:35:19.249Z,17.33
2018-06-08T20:37:48.818Z,16.90
2018-06-08T20:40:18.050Z,15.68
2018-06-08T20:42:46.402Z,14.63
2018-06-08T20:45:14.778Z,15.18
2018-06-08T20:47:43.153Z,13.85
2018-06-08T20:50:11.541Z,15.00
2018-06-08T20:52:40.159Z,12.77
2018-06-08T20:55:08.532Z,15.10
2018-06-08T20:57:36.920Z,21.42
2018-06-08T21:00:05.351Z,14.30
2018-06-08T21:02:34.622Z,11.85
2018-06-08T21:05:02.934Z,11.43
2018-06-08T21:07:31.343Z,11.55
2018-06-08T21:09:59.688Z,11.63
2018-06-08T21:12:28.070Z,10.65
2018-06-08T21:14:56.438Z,10.77
2018-06-08T21:17:27.788Z,13.48
2018-06-08T21:19:56.222Z,15.32
2018-06-08T21:22:24.869Z,12.65
2018-06-08T21:24:53.238Z,10.75
2018-06-08T21:27:21.615Z,10.02
2018-06-08T21:29:50.948Z,10.00
2018-06-08T21:32:19.286Z,9.63
2018-06-08T21:34:48.436Z,9.68
2018-06-08T21:37:17.078Z,9.32
2018-06-08T21:39:46.202Z,9.88
2018-06-08T21:42:14.695Z,10.25
2018-06-08T21:44:43.509Z,8.98
2018-06-08T21:47:12.881Z,9.63
2018-06-08T21:49:41.230Z,9.88
2018-06-08T21:52:10.527Z,9.77
2018-06-08T21:54:39.200Z,9.52
2018-06-08T21:57:08.373Z,9.00
2018-06-08T21:59:36.970Z,8.52
2018-06-08T22:02:05.341Z,8.57
2018-06-08T22:04:33.700Z,9.13
2018-06-08T22:07:02.890Z,9.50
2018-06-08T22:09:31.270Z,8.45
2018-06-08T22:11:59.795Z,8.20
2018-06-08T22:14:28.211Z,8.60
2018-06-08T22:16:56.495Z,7.82
2018-06-08T22:19:24.868Z,8.77
2018-06-08T22:21:53.222Z,8.05
2018-06-08T22:24:22.362Z,7.97
2018-06-08T22:26:50.731Z,8.15
2018-06-08T22:29:19.074Z,7.53
2018-06-08T22:31:47.507Z,21.25
2018-06-08T22:34:16.067Z,39.40
2018-06-08T22:36:44.516Z,15.88
2018-06-08T22:39:13.565Z,8.80
2018-06-08T22:41:42.073Z,7.75
2018-06-08T22:44:11.336Z,7.80
2018-06-08T22:46:39.771Z,7.95
2018-06-08T22:49:08.288Z,7.80
2018-06-08T22:51:37.177Z,7.05
2018-06-08T22:54:06.398Z,7.72
2018-06-08T22:56:34.763Z,8.02
2018-06-08T22:59:04.387Z,8.82
2018-06-08T23:01:33.731Z,8.73
2018-06-08T23:04:02.103Z,8.45
2018-06-08T23:06:31.239Z,8.40
2018-06-08T23:09:00.586Z,7.95
2018-06-08T23:11:29.133Z,7.95
2018-06-08T23:13:57.816Z,7.68
2018-06-08T23:16:26.803Z,8.05
2018-06-08T23:18:55.689Z,8.18
2018-06-08T23:21:25.215Z,8.40
2018-06-08T23:23:53.843Z,7.90
2018-06-08T23:26:22.220Z,8.55
2018-06-08T23:28:50.830Z,8.50
2018-06-08T23:31:19.483Z,8.65
2018-06-08T23:33:48.315Z,7.53
2018-06-08T23:36:16.658Z,8.32
2018-06-08T23:38:47.189Z,8.40
2018-06-08T23:41:15.706Z,7.82
2018-06-08T23:43:44.151Z,8.90
2018-06-08T23:46:12.774Z,8.27
2018-06-08T23:48:42.637Z,8.20
2018-06-08T23:51:10.983Z,8.50
2018-06-08T23:53:39.890Z,8.23
2018-06-08T23:56:09.158Z,8.77
2018-06-08T23:58:39.023Z,8.32
